createdAt,value
2023-08-30T00:01:19.757Z,60.73
2023-08-30T00:03:47.340Z,60.69
2023-08-30T00:06:14.990Z,60.68
2023-08-30T00:08:42.461Z,60.64
2023-08-30T00:11:10.001Z,60.64
2023-08-30T00:13:37.514Z,60.65
2023-08-30T00:16:05.292Z,60.75
2023-08-30T00:18:32.877Z,60.81
2023-08-30T00:21:00.548Z,60.83
2023-08-30T00:23:28.082Z,60.85
2023-08-30T00:25:55.589Z,60.97
2023-08-30T00:28:23.128Z,60.97
2023-08-30T00:30:57.114Z,61.05
2023-08-30T00:33:24.883Z,60.96
2023-08-30T00:36:02.084Z,60.81
2023-08-30T00:38:29.982Z,60.98
2023-08-30T00:40:57.647Z,60.93
2023-08-30T00:43:26.051Z,60.82
2023-08-30T00:45:53.566Z,60.84
2023-08-30T00:48:21.522Z,60.75
2023-08-30T00:50:49.073Z,60.71
2023-08-30T00:53:16.661Z,60.88
2023-08-30T00:55:44.647Z,61.08
2023-08-30T00:58:12.801Z,61.18
2023-08-30T01:00:40.948Z,61.21
2023-08-30T01:03:11.467Z,61.18
2023-08-30T01:05:39.078Z,61.17
2023-08-30T01:08:07.222Z,61.13
2023-08-30T01:10:53.780Z,61.05
2023-08-30T01:13:21.697Z,61.19
2023-08-30T01:15:50.103Z,61.17
2023-08-30T01:18:19.217Z,61.04
2023-08-30T01:20:47.749Z,61.02
2023-08-30T01:23:18.234Z,61.12
2023-08-30T01:26:12.111Z,61.15
2023-08-30T01:28:40.407Z,61.27
2023-08-30T01:31:09.462Z,61.26
2023-08-30T01:33:37.758Z,61.28
2023-08-30T01:36:06.215Z,61.25
2023-08-30T01:38:34.295Z,61.17
2023-08-30T01:41:03.074Z,61.19
2023-08-30T01:43:31.104Z,61.25
2023-08-30T01:45:59.000Z,61.15
2023-08-30T01:48:26.692Z,61.32
2023-08-30T01:50:55.880Z,61.28
2023-08-30T01:53:23.420Z,61.54
2023-08-30T01:55:51.043Z,61.41
2023-08-30T01:58:20.255Z,61.44
2023-08-30T02:00:48.022Z,61.64
2023-08-30T02:03:15.925Z,61.76
2023-08-30T02:06:03.207Z,61.72
2023-08-30T02:08:43.135Z,61.77
2023-08-30T02:11:16.965Z,61.74
2023-08-30T02:13:44.622Z,61.84
2023-08-30T02:16:12.373Z,61.81
2023-08-30T02:18:42.949Z,61.80
2023-08-30T02:21:10.489Z,61.80
2023-08-30T02:23:38.043Z,61.66
2023-08-30T02:26:05.662Z,61.75
2023-08-30T02:28:33.382Z,61.91
2023-08-30T02:31:00.984Z,62.07
2023-08-30T02:33:28.562Z,61.94
2023-08-30T02:35:56.265Z,61.82
2023-08-30T02:38:25.372Z,61.93
2023-08-30T02:40:52.872Z,61.99
2023-08-30T02:43:20.421Z,62.06
2023-08-30T02:45:47.978Z,61.97
2023-08-30T02:48:16.106Z,61.88
2023-08-30T02:50:43.713Z,62.12
2023-08-30T02:53:11.450Z,62.20
2023-08-30T02:55:38.981Z,62.40
2023-08-30T02:58:06.723Z,62.33
2023-08-30T03:00:35.714Z,62.28
2023-08-30T03:03:03.821Z,62.41
2023-08-30T03:05:31.448Z,62.31
2023-08-30T03:07:58.987Z,62.38
2023-08-30T03:10:26.789Z,62.49
2023-08-30T03:12:54.433Z,62.66
2023-08-30T03:15:22.074Z,62.62
2023-08-30T03:17:49.634Z,62.85
2023-08-30T03:20:17.395Z,62.92
2023-08-30T03:22:44.877Z,63.01
2023-08-30T03:25:12.748Z,62.91
2023-08-30T03:27:40.800Z,62.86
2023-08-30T03:30:09.486Z,62.90
2023-08-30T03:32:38.125Z,62.85
2023-08-30T03:35:06.612Z,62.95
2023-08-30T03:37:34.216Z,63.00
2023-08-30T03:40:03.172Z,63.01
2023-08-30T03:42:30.805Z,63.10
2023-08-30T03:44:58.544Z,63.22
2023-08-30T03:47:26.268Z,62.98
2023-08-30T03:49:53.893Z,63.28
2023-08-30T03:52:21.466Z,63.24
2023-08-30T03:54:49.119Z,63.32
2023-08-30T03:57:16.654Z,63.32
2023-08-30T03:59:44.246Z,63.32
2023-08-30T04:02:12.006Z,63.44
2023-08-30T04:04:39.773Z,63.55
2023-08-30T04:07:07.303Z,63.35
2023-08-30T04:09:34.948Z,63.22
2023-08-30T04:12:02.571Z,63.31
2023-08-30T04:14:30.122Z,63.23
2023-08-30T04:16:58.718Z,63.27
2023-08-30T04:19:26.295Z,63.28
2023-08-30T04:21:53.815Z,63.13
2023-08-30T04:24:21.324Z,63.14
2023-08-30T04:26:52.823Z,63.06
2023-08-30T04:29:20.418Z,63.15
2023-08-30T04:31:47.990Z,63.02
2023-08-30T04:34:17.363Z,63.02
2023-08-30T04:36:45.686Z,63.17
2023-08-30T04:39:15.019Z,63.16
2023-08-30T04:41:43.203Z,63.12
2023-08-30T04:44:10.796Z,62.94
2023-08-30T04:46:38.366Z,62.79
2023-08-30T04:49:06.024Z,62.70
2023-08-30T04:51:34.127Z,62.92
2023-08-30T04:54:01.826Z,62.91
2023-08-30T04:56:29.369Z,62.89
2023-08-30T04:58:58.511Z,62.89
2023-08-30T05:01:26.285Z,62.82
2023-08-30T05:03:57.244Z,62.84
2023-08-30T05:06:25.203Z,62.69
2023-08-30T05:08:52.751Z,62.65
2023-08-30T05:13:42.661Z,62.46
2023-08-30T05:16:10.439Z,62.59
2023-08-30T05:18:38.235Z,62.27
2023-08-30T05:21:06.079Z,62.06
2023-08-30T05:23:33.869Z,62.04
2023-08-30T05:26:01.507Z,62.28
2023-08-30T05:28:29.110Z,62.23
2023-08-30T05:30:57.444Z,62.39
2023-08-30T05:33:32.115Z,62.30
2023-08-30T05:36:09.245Z,62.22
2023-08-30T05:38:52.555Z,62.26
2023-08-30T05:41:49.309Z,62.25
2023-08-30T05:44:17.007Z,62.00
2023-08-30T05:46:44.523Z,61.96
2023-08-30T05:49:12.588Z,61.94
2023-08-30T05:51:40.080Z,61.89
2023-08-30T05:54:08.162Z,61.67
2023-08-30T05:56:35.808Z,61.62
2023-08-30T05:59:03.372Z,61.54
2023-08-30T06:01:30.957Z,61.50
2023-08-30T06:03:58.799Z,61.24
2023-08-30T06:06:28.595Z,61.36
2023-08-30T06:08:56.079Z,61.26
2023-08-30T06:11:23.724Z,60.98
2023-08-30T06:13:51.805Z,60.96
2023-08-30T06:16:19.326Z,60.80
2023-08-30T06:18:47.009Z,60.52
2023-08-30T06:21:14.539Z,60.40
2023-08-30T06:23:42.577Z,60.31
2023-08-30T06:26:10.244Z,60.04
2023-08-30T06:28:38.943Z,59.96
2023-08-30T06:31:06.682Z,59.73
2023-08-30T06:33:34.205Z,59.56
2023-08-30T06:36:01.706Z,59.59
2023-08-30T06:38:29.223Z,59.68
2023-08-30T06:40:59.393Z,59.59
2023-08-30T06:43:27.078Z,59.24
2023-08-30T06:45:54.741Z,59.25
2023-08-30T06:48:22.303Z,58.73
2023-08-30T06:50:49.797Z,58.37
2023-08-30T06:53:17.510Z,58.11
2023-08-30T06:55:45.068Z,56.58
2023-08-30T06:58:12.839Z,56.84
2023-08-30T07:00:40.358Z,56.64
2023-08-30T07:03:08.010Z,57.17
2023-08-30T07:05:35.665Z,57.27
2023-08-30T07:08:03.970Z,56.66
2023-08-30T07:10:31.533Z,56.52
2023-08-30T07:12:59.129Z,56.47
2023-08-30T07:15:26.859Z,56.17
2023-08-30T07:17:56.260Z,56.20
2023-08-30T07:20:25.014Z,56.43
2023-08-30T07:22:52.521Z,56.20
2023-08-30T07:25:20.097Z,55.88
2023-08-30T07:27:47.576Z,56.40
2023-08-30T07:30:15.496Z,55.25
2023-08-30T07:32:43.531Z,54.55
2023-08-30T07:35:13.226Z,54.67
2023-08-30T07:37:42.419Z,54.59
2023-08-30T07:40:10.950Z,54.41
2023-08-30T07:42:38.488Z,53.72
2023-08-30T07:45:07.059Z,53.62
2023-08-30T07:47:34.654Z,52.79
2023-08-30T07:50:02.310Z,52.50
2023-08-30T07:52:43.797Z,51.36
2023-08-30T07:55:14.322Z,51.61
2023-08-30T07:57:41.966Z,51.91
2023-08-30T08:00:10.481Z,50.86
2023-08-30T08:02:41.588Z,50.14
2023-08-30T08:05:09.542Z,50.49
2023-08-30T08:07:39.579Z,50.53
2023-08-30T08:10:08.318Z,50.15
2023-08-30T08:12:36.085Z,50.07
2023-08-30T08:15:04.418Z,49.95
2023-08-30T08:17:31.982Z,47.63
2023-08-30T08:19:59.647Z,47.67
2023-08-30T08:22:27.310Z,47.13
2023-08-30T08:24:57.609Z,47.31
2023-08-30T08:27:28.585Z,48.14
2023-08-30T08:29:56.170Z,47.57
2023-08-30T08:32:24.074Z,46.69
2023-08-30T08:34:51.601Z,46.60
2023-08-30T08:37:19.064Z,46.82
2023-08-30T08:39:47.773Z,46.46
2023-08-30T08:42:18.891Z,45.51
2023-08-30T08:44:52.173Z,45.14
2023-08-30T08:47:20.785Z,45.48
2023-08-30T08:49:49.080Z,45.78
2023-08-30T08:52:29.371Z,46.23
2023-08-30T08:55:00.969Z,45.68
2023-08-30T08:57:29.686Z,44.57
2023-08-30T08:59:57.898Z,44.93
2023-08-30T09:02:25.553Z,44.83
2023-08-30T09:04:54.095Z,44.80
2023-08-30T09:07:21.713Z,44.82
2023-08-30T09:09:49.287Z,44.38
2023-08-30T09:12:16.765Z,44.07
2023-08-30T09:14:55.528Z,44.04
2023-08-30T09:17:23.212Z,43.26
2023-08-30T09:19:51.562Z,42.69
2023-08-30T09:22:19.318Z,41.52
2023-08-30T09:24:46.921Z,41.42
2023-08-30T09:27:14.444Z,41.25
2023-08-30T09:29:46.563Z,41.32
2023-08-30T09:32:15.133Z,41.44
2023-08-30T09:34:49.045Z,41.36
2023-08-30T09:37:23.390Z,41.36
2023-08-30T09:39:51.701Z,41.21
2023-08-30T09:42:19.412Z,41.41
2023-08-30T09:44:47.472Z,40.93
2023-08-30T09:47:16.801Z,41.32
2023-08-30T09:49:46.531Z,40.90
2023-08-30T09:52:16.102Z,40.11
2023-08-30T09:54:45.079Z,39.73
2023-08-30T09:57:12.765Z,39.08
2023-08-30T09:59:40.835Z,37.93
2023-08-30T10:02:09.616Z,37.88
2023-08-30T10:04:40.341Z,38.07
2023-08-30T10:07:08.134Z,37.30
2023-08-30T10:09:35.895Z,37.11
2023-08-30T10:12:04.170Z,36.97
2023-08-30T10:14:31.849Z,36.83
2023-08-30T10:17:04.466Z,35.33
2023-08-30T10:19:32.520Z,35.03
2023-08-30T10:22:05.716Z,35.00
2023-08-30T10:24:42.286Z,35.32
2023-08-30T10:27:16.268Z,34.40
2023-08-30T10:29:43.933Z,34.39
2023-08-30T10:32:11.526Z,33.82
2023-08-30T10:34:39.090Z,33.43
2023-08-30T10:37:11.459Z,34.13
2023-08-30T10:39:40.347Z,33.85
2023-08-30T10:42:12.241Z,33.35
2023-08-30T10:45:09.898Z,33.35
2023-08-30T10:47:40.909Z,33.64
2023-08-30T10:50:11.702Z,33.42
2023-08-30T10:52:39.648Z,33.82
2023-08-30T10:55:10.671Z,33.64
2023-08-30T10:57:38.777Z,33.03
2023-08-30T11:00:10.912Z,32.89
2023-08-30T11:02:38.971Z,32.22
2023-08-30T11:05:08.087Z,32.67
2023-08-30T11:07:35.633Z,33.41
2023-08-30T11:10:05.955Z,33.08
2023-08-30T11:12:34.223Z,33.29
2023-08-30T11:15:01.889Z,33.67
2023-08-30T11:17:29.503Z,33.98
2023-08-30T11:20:09.674Z,34.06
2023-08-30T11:22:40.957Z,34.14
2023-08-30T11:25:12.617Z,33.67
2023-08-30T11:27:40.510Z,33.63
2023-08-30T11:30:09.629Z,33.70
2023-08-30T11:32:37.794Z,33.95
2023-08-30T11:35:06.209Z,33.58
2023-08-30T11:37:33.981Z,33.42
2023-08-30T11:40:02.758Z,32.80
2023-08-30T11:42:30.354Z,32.82
2023-08-30T11:45:01.217Z,32.45
2023-08-30T11:47:28.952Z,32.20
2023-08-30T11:49:58.089Z,31.30
2023-08-30T11:52:26.872Z,31.59
2023-08-30T11:54:54.841Z,31.75
2023-08-30T11:57:23.049Z,32.28
2023-08-30T11:59:52.323Z,32.70
2023-08-30T12:02:20.168Z,32.72
2023-08-30T12:04:48.439Z,31.94
2023-08-30T12:07:24.384Z,31.20
2023-08-30T12:09:52.411Z,31.01
2023-08-30T12:12:21.264Z,31.13
2023-08-30T12:14:57.275Z,31.54
2023-08-30T12:17:25.384Z,31.77
2023-08-30T12:19:57.545Z,32.17
2023-08-30T12:22:25.850Z,31.61
2023-08-30T12:24:54.511Z,30.92
2023-08-30T12:27:22.056Z,30.31
2023-08-30T12:29:49.535Z,29.79
2023-08-30T12:32:17.756Z,29.52
2023-08-30T12:34:45.394Z,29.41
2023-08-30T12:37:12.947Z,29.55
2023-08-30T12:39:40.555Z,29.28
2023-08-30T12:42:09.413Z,28.72
2023-08-30T12:44:38.024Z,28.95
2023-08-30T12:47:05.764Z,28.38
2023-08-30T12:49:34.397Z,27.78
2023-08-30T12:52:02.183Z,27.45
2023-08-30T12:54:29.708Z,27.67
2023-08-30T12:56:57.454Z,27.90
2023-08-30T12:59:25.580Z,28.30
2023-08-30T13:01:53.286Z,28.51
2023-08-30T13:04:21.566Z,29.03
2023-08-30T13:06:49.143Z,29.90
2023-08-30T13:09:16.679Z,30.53
2023-08-30T13:11:44.807Z,31.15
2023-08-30T13:14:12.311Z,31.83
2023-08-30T13:16:40.196Z,32.31
2023-08-30T13:19:07.876Z,32.55
2023-08-30T13:21:41.067Z,32.30
2023-08-30T13:24:09.025Z,31.85
2023-08-30T13:26:36.624Z,31.84
2023-08-30T13:29:04.457Z,31.29
2023-08-30T13:31:32.453Z,30.66
2023-08-30T13:34:00.377Z,29.75
2023-08-30T13:36:29.330Z,29.61
2023-08-30T13:38:57.889Z,29.66
2023-08-30T13:41:25.568Z,29.74
2023-08-30T13:43:53.047Z,29.99
2023-08-30T13:46:20.758Z,29.83
2023-08-30T13:48:49.113Z,29.78
2023-08-30T13:51:23.053Z,30.20
2023-08-30T13:53:51.609Z,30.60
2023-08-30T13:56:23.005Z,31.02
2023-08-30T13:58:50.896Z,30.34
2023-08-30T14:01:18.457Z,29.32
2023-08-30T14:03:46.118Z,29.12
2023-08-30T14:06:13.875Z,29.22
2023-08-30T14:08:41.456Z,28.80
2023-08-30T14:11:09.205Z,28.62
2023-08-30T14:13:36.725Z,28.76
2023-08-30T14:16:04.986Z,28.93
2023-08-30T14:18:33.180Z,29.91
2023-08-30T14:21:01.073Z,30.53
2023-08-30T14:23:30.204Z,31.31
2023-08-30T14:26:01.518Z,31.86
2023-08-30T14:28:29.296Z,32.54
2023-08-30T14:30:57.462Z,32.35
2023-08-30T14:33:24.983Z,32.39
2023-08-30T14:35:52.492Z,32.44
2023-08-30T14:38:20.998Z,31.87
2023-08-30T14:41:01.748Z,31.25
2023-08-30T14:43:29.421Z,29.94
2023-08-30T14:46:10.724Z,29.29
2023-08-30T14:48:40.786Z,28.72
2023-08-30T14:51:09.025Z,28.48
2023-08-30T14:53:37.137Z,28.21
2023-08-30T14:56:08.179Z,28.40
2023-08-30T14:58:37.005Z,28.91
2023-08-30T15:01:06.028Z,29.31
2023-08-30T15:03:34.090Z,30.10
2023-08-30T15:06:02.165Z,30.94
2023-08-30T15:08:30.009Z,31.70
2023-08-30T15:10:58.799Z,32.06
2023-08-30T15:13:26.556Z,32.84
2023-08-30T15:15:54.760Z,33.29
2023-08-30T15:18:22.385Z,33.84
2023-08-30T15:20:53.826Z,34.26
2023-08-30T15:23:21.513Z,34.70
2023-08-30T15:25:49.489Z,35.04
2023-08-30T15:28:17.282Z,35.17
2023-08-30T15:30:45.727Z,35.78
2023-08-30T15:33:15.329Z,36.04
2023-08-30T15:35:48.366Z,36.25
2023-08-30T15:38:16.861Z,36.86
2023-08-30T15:40:44.809Z,36.90
2023-08-30T15:43:12.713Z,37.01
2023-08-30T15:45:40.556Z,37.22
2023-08-30T15:48:08.170Z,37.35
2023-08-30T15:50:35.822Z,37.72
2023-08-30T15:53:03.485Z,37.73
2023-08-30T15:55:32.190Z,38.02
2023-08-30T15:57:59.971Z,38.39
2023-08-30T16:00:27.955Z,38.36
2023-08-30T16:02:55.815Z,38.56
2023-08-30T16:05:24.037Z,40.43
2023-08-30T16:07:51.730Z,42.87
2023-08-30T16:10:19.638Z,44.58
2023-08-30T16:12:47.521Z,46.21
2023-08-30T16:15:15.224Z,47.39
2023-08-30T16:17:42.860Z,48.26
2023-08-30T16:20:11.603Z,49.81
2023-08-30T16:22:39.509Z,51.31
2023-08-30T16:25:07.681Z,52.34
2023-08-30T16:27:35.203Z,53.16
2023-08-30T16:30:04.249Z,53.89
2023-08-30T16:32:32.581Z,54.73
2023-08-30T16:35:00.155Z,55.41
2023-08-30T16:37:27.944Z,56.36
2023-08-30T16:39:55.995Z,57.20
2023-08-30T16:42:23.640Z,57.81
2023-08-30T16:44:51.228Z,58.47
2023-08-30T16:47:18.808Z,58.96
2023-08-30T16:49:46.444Z,59.40
2023-08-30T16:52:14.025Z,59.60
2023-08-30T16:54:41.623Z,59.78
2023-08-30T16:57:09.239Z,60.00
2023-08-30T16:59:36.803Z,60.35
2023-08-30T17:02:07.859Z,60.43
2023-08-30T17:04:36.888Z,60.62
2023-08-30T17:07:05.741Z,60.48
2023-08-30T17:09:34.464Z,60.44
2023-08-30T17:12:01.950Z,60.75
2023-08-30T17:14:29.625Z,60.73
2023-08-30T17:16:59.846Z,60.91
2023-08-30T17:19:27.824Z,60.99
2023-08-30T17:21:56.926Z,61.33
2023-08-30T17:24:24.791Z,61.21
2023-08-30T17:26:54.416Z,61.08
2023-08-30T17:31:34.067Z,61.06
2023-08-30T17:34:02.390Z,61.00
2023-08-30T17:36:30.004Z,60.52
2023-08-30T17:39:06.037Z,60.42
2023-08-30T17:41:34.753Z,60.53
2023-08-30T17:44:02.578Z,60.79
2023-08-30T17:46:32.449Z,60.44
2023-08-30T17:49:00.442Z,60.38
2023-08-30T17:51:28.186Z,60.54
2023-08-30T17:53:56.008Z,60.50
2023-08-30T17:56:25.412Z,60.35
2023-08-30T17:58:53.140Z,60.58
2023-08-30T18:01:20.920Z,60.53
2023-08-30T18:03:48.702Z,60.45
2023-08-30T18:06:16.511Z,60.53
2023-08-30T18:08:45.752Z,60.60
2023-08-30T18:11:17.520Z,60.77
2023-08-30T18:13:45.602Z,61.05
2023-08-30T18:16:24.890Z,61.17
2023-08-30T18:18:54.605Z,61.43
2023-08-30T18:21:23.196Z,61.56
2023-08-30T18:24:27.935Z,61.58
2023-08-30T18:26:56.648Z,61.70
2023-08-30T18:29:26.157Z,61.71
2023-08-30T18:31:53.786Z,61.93
2023-08-30T18:34:21.597Z,61.82
2023-08-30T18:36:49.225Z,61.95
2023-08-30T18:39:18.237Z,62.10
2023-08-30T18:41:45.775Z,62.16
2023-08-30T18:44:14.372Z,62.35
2023-08-30T18:46:42.100Z,62.62
2023-08-30T18:49:09.957Z,62.54
2023-08-30T18:51:37.590Z,62.56
2023-08-30T18:54:06.043Z,62.34
2023-08-30T18:56:34.652Z,62.57
2023-08-30T18:59:02.484Z,62.74
2023-08-30T19:01:32.274Z,62.60
2023-08-30T19:04:00.067Z,62.90
2023-08-30T19:06:28.024Z,62.85
2023-08-30T19:08:56.573Z,62.96
2023-08-30T19:11:24.340Z,62.95
2023-08-30T19:13:53.636Z,63.02
2023-08-30T19:16:22.613Z,62.99
2023-08-30T19:18:50.713Z,63.05
2023-08-30T19:21:21.342Z,63.22
2023-08-30T19:23:49.504Z,63.37
2023-08-30T19:26:19.931Z,63.33
2023-08-30T19:28:48.757Z,63.46
2023-08-30T19:31:16.663Z,63.69
2023-08-30T19:33:44.467Z,63.87
2023-08-30T19:36:15.216Z,63.86
2023-08-30T19:38:42.848Z,63.83
2023-08-30T19:41:10.416Z,63.96
2023-08-30T19:43:37.970Z,64.00
2023-08-30T19:46:06.101Z,63.96
2023-08-30T19:48:33.928Z,64.06
2023-08-30T19:51:01.889Z,63.95
2023-08-30T19:53:29.802Z,64.15
2023-08-30T19:55:57.741Z,64.10
2023-08-30T19:58:25.408Z,64.16
2023-08-30T20:00:52.951Z,64.17
2023-08-30T20:03:21.464Z,64.23
2023-08-30T20:05:51.469Z,64.27
2023-08-30T20:08:19.048Z,64.09
2023-08-30T20:10:47.076Z,64.17
2023-08-30T20:13:14.865Z,64.07
2023-08-30T20:15:42.637Z,64.11
2023-08-30T20:18:11.681Z,64.08
2023-08-30T20:20:39.730Z,64.16
2023-08-30T20:23:07.663Z,64.29
2023-08-30T20:25:37.647Z,64.19
2023-08-30T20:28:05.978Z,64.18
2023-08-30T20:30:33.565Z,64.16
2023-08-30T20:33:01.144Z,64.22
2023-08-30T20:35:28.874Z,64.33
2023-08-30T20:37:57.144Z,64.31
2023-08-30T20:40:24.948Z,64.39
2023-08-30T20:42:52.523Z,64.21
2023-08-30T20:45:20.063Z,64.34
2023-08-30T20:47:47.599Z,64.40
2023-08-30T20:50:15.467Z,64.43
2023-08-30T20:52:43.132Z,64.42
2023-08-30T20:55:10.827Z,64.56
2023-08-30T20:57:38.718Z,64.73
2023-08-30T21:00:07.768Z,64.90
2023-08-30T21:02:37.124Z,64.87
2023-08-30T21:05:05.507Z,64.89
2023-08-30T21:07:33.155Z,64.94
2023-08-30T21:10:00.749Z,65.13
2023-08-30T21:12:28.436Z,65.02
2023-08-30T21:14:55.948Z,65.16
2023-08-30T21:17:23.953Z,65.23
2023-08-30T21:19:51.744Z,65.19
2023-08-30T21:22:19.320Z,65.30
2023-08-30T21:24:46.830Z,65.31
2023-08-30T21:27:14.414Z,65.46
2023-08-30T21:29:41.921Z,65.64
2023-08-30T21:32:09.440Z,65.59
2023-08-30T21:34:37.475Z,65.52
2023-08-30T21:37:05.199Z,65.61
2023-08-30T21:39:33.146Z,65.71
2023-08-30T21:42:01.542Z,65.86
2023-08-30T21:44:29.041Z,65.77
2023-08-30T21:46:56.766Z,65.89
2023-08-30T21:49:24.441Z,65.92
2023-08-30T21:51:52.085Z,65.84
2023-08-30T21:54:19.581Z,66.13
2023-08-30T21:56:47.105Z,66.08
2023-08-30T21:59:14.595Z,66.09
2023-08-30T22:01:42.488Z,66.11
2023-08-30T22:04:10.458Z,66.42
2023-08-30T22:06:38.101Z,66.59
2023-08-30T22:09:09.241Z,66.71
2023-08-30T22:11:36.995Z,66.86
2023-08-30T22:14:07.738Z,66.88
2023-08-30T22:16:35.383Z,66.99
2023-08-30T22:19:04.337Z,67.03
2023-08-30T22:21:33.702Z,66.64
2023-08-30T22:24:03.350Z,66.40
2023-08-30T22:26:31.148Z,66.81
2023-08-30T22:28:59.602Z,67.51
2023-08-30T22:31:27.198Z,68.41
2023-08-30T22:33:54.750Z,69.55
2023-08-30T22:36:22.347Z,70.09
2023-08-30T22:38:50.155Z,70.75
2023-08-30T22:41:18.276Z,71.04
2023-08-30T22:43:46.131Z,71.26
2023-08-30T22:46:13.887Z,71.58
2023-08-30T22:48:47.931Z,71.68
2023-08-30T22:51:27.855Z,71.76
2023-08-30T22:54:03.411Z,71.62
2023-08-30T22:56:31.043Z,71.51
2023-08-30T22:58:58.778Z,71.17
2023-08-30T23:01:26.462Z,70.83
2023-08-30T23:03:55.309Z,70.45
2023-08-30T23:06:23.468Z,70.26
2023-08-30T23:08:51.027Z,70.09
2023-08-30T23:11:19.016Z,69.74
2023-08-30T23:13:46.659Z,69.39
2023-08-30T23:16:14.837Z,69.45
2023-08-30T23:18:42.498Z,69.16
2023-08-30T23:21:16.887Z,69.04
2023-08-30T23:23:44.559Z,68.94
2023-08-30T23:26:12.095Z,68.80
2023-08-30T23:28:39.759Z,68.34
2023-08-30T23:31:11.240Z,68.00
2023-08-30T23:33:39.904Z,68.18
2023-08-30T23:36:07.445Z,68.06
2023-08-30T23:38:35.299Z,68.30
2023-08-30T23:41:04.047Z,68.39
2023-08-30T23:43:31.543Z,68.20
2023-08-30T23:45:59.229Z,68.17
2023-08-30T23:48:27.064Z,68.00
2023-08-30T23:50:54.913Z,68.12
2023-08-30T23:53:23.149Z,68.29
2023-08-30T23:55:52.269Z,67.91
2023-08-30T23:58:21.001Z,67.95
